sensor_id;sensor_type;location;lat;lon;timestamp;pressure;altitude;pressure_sealevel;temperature;humidity
44297;BME280;51842;47.450;8.654;2024-01-30T00:02:14;96886.56;;;-0.88;100.00
44297;BME280;51842;47.450;8.654;2024-01-30T00:04:40;96892.59;;;-0.88;100.00
44297;BME280;51842;47.450;8.654;2024-01-30T00:07:06;96892.59;;;-0.88;100.00
44297;BME280;51842;47.450;8.654;2024-01-30T00:09:33;96886.56;;;-0.88;100.00
44297;BME280;51842;47.450;8.654;2024-01-30T00:11:59;96893.91;;;-0.92;100.00
44297;BME280;51842;47.450;8.654;2024-01-30T00:14:25;96897.03;;;-0.97;100.00
44297;BME280;51842;47.450;8.654;2024-01-30T00:16:52;96891.31;;;-1.00;100.00
44297;BME280;51842;47.450;8.654;2024-01-30T00:19:18;96889.19;;;-0.97;100.00
44297;BME280;51842;47.450;8.654;2024-01-30T00:21:44;96884.41;;;-1.01;100.00
44297;BME280;51842;47.450;8.654;2024-01-30T00:24:10;96885.88;;;-1.07;100.00
44297;BME280;51842;47.450;8.654;2024-01-30T00:26:36;96889.97;;;-1.04;100.00
44297;BME280;51842;47.450;8.654;2024-01-30T00:29:02;96891.44;;;-1.02;100.00
44297;BME280;51842;47.450;8.654;2024-01-30T00:31:28;96894.22;;;-1.03;100.00
44297;BME280;51842;47.450;8.654;2024-01-30T00:33:55;96888.34;;;-1.05;100.00
44297;BME280;51842;47.450;8.654;2024-01-30T00:36:21;96887.50;;;-1.14;100.00
44297;BME280;51842;47.450;8.654;2024-01-30T00:38:47;96892.25;;;-1.09;100.00
44297;BME280;51842;47.450;8.654;2024-01-30T00:41:14;96888.78;;;-1.10;100.00
44297;BME280;51842;47.450;8.654;2024-01-30T00:43:40;96895.84;;;-1.10;100.00
44297;BME280;51842;47.450;8.654;2024-01-30T00:46:06;96885.03;;;-1.15;100.00
44297;BME280;51842;47.450;8.654;2024-01-30T00:48:32;96892.03;;;-1.16;100.00
44297;BME280;51842;47.450;8.654;2024-01-30T00:50:58;96891.56;;;-1.20;100.00
44297;BME280;51842;47.450;8.654;2024-01-30T00:53:24;96887.00;;;-1.18;100.00
44297;BME280;51842;47.450;8.654;2024-01-30T00:55:49;96884.72;;;-1.12;100.00
44297;BME280;51842;47.450;8.654;2024-01-30T00:58:15;96889.13;;;-1.13;100.00
44297;BME280;51842;47.450;8.654;2024-01-30T01:00:41;96888.47;;;-1.07;100.00
44297;BME280;51842;47.450;8.654;2024-01-30T01:03:07;96887.03;;;-1.09;100.00
44297;BME280;51842;47.450;8.654;2024-01-30T01:05:33;96887.66;;;-1.15;100.00
44297;BME280;51842;47.450;8.654;2024-01-30T01:07:59;96885.69;;;-1.13;100.00
44297;BME280;51842;47.450;8.654;2024-01-30T01:10:25;96892.88;;;-1.15;100.00
44297;BME280;51842;47.450;8.654;2024-01-30T01:12:51;96890.47;;;-1.09;100.00
44297;BME280;51842;47.450;8.654;2024-01-30T01:15:17;96897.50;;;-1.09;100.00
44297;BME280;51842;47.450;8.654;2024-01-30T01:17:43;96890.59;;;-1.10;100.00
44297;BME280;51842;47.450;8.654;2024-01-30T01:20:09;96890.47;;;-1.09;100.00
44297;BME280;51842;47.450;8.654;2024-01-30T01:22:37;96884.91;;;-1.06;100.00
44297;BME280;51842;47.450;8.654;2024-01-30T01:25:05;96892.56;;;-1.04;100.00
44297;BME280;51842;47.450;8.654;2024-01-30T01:27:34;96891.63;;;-1.03;100.00
44297;BME280;51842;47.450;8.654;2024-01-30T01:30:04;96891.63;;;-1.03;100.00
44297;BME280;51842;47.450;8.654;2024-01-30T01:32:31;96894.06;;;-1.02;100.00
44297;BME280;51842;47.450;8.654;2024-01-30T01:34:57;96892.25;;;-1.01;100.00
44297;BME280;51842;47.450;8.654;2024-01-30T01:37:23;96885.41;;;-1.02;100.00
44297;BME280;51842;47.450;8.654;2024-01-30T01:39:52;96888.84;;;-1.02;100.00
44297;BME280;51842;47.450;8.654;2024-01-30T01:42:18;96891.44;;;-1.02;100.00
44297;BME280;51842;47.450;8.654;2024-01-30T01:44:44;96886.22;;;-1.02;100.00
44297;BME280;51842;47.450;8.654;2024-01-30T01:47:10;96889.63;;;-1.01;100.00
44297;BME280;51842;47.450;8.654;2024-01-30T01:49:37;96881.78;;;-1.01;100.00
44297;BME280;51842;47.450;8.654;2024-01-30T01:52:05;96886.38;;;-1.03;100.00
44297;BME280;51842;47.450;8.654;2024-01-30T01:54:31;96880.00;;;-1.01;100.00
44297;BME280;51842;47.450;8.654;2024-01-30T01:56:58;96882.47;;;-0.99;100.00
44297;BME280;51842;47.450;8.654;2024-01-30T01:59:26;96881.16;;;-1.03;100.00
44297;BME280;51842;47.450;8.654;2024-01-30T02:01:56;96885.53;;;-1.04;100.00
44297;BME280;51842;47.450;8.654;2024-01-30T02:04:22;96885.88;;;-1.07;100.00
44297;BME280;51842;47.450;8.654;2024-01-30T02:06:48;96881.78;;;-1.09;100.00
44297;BME280;51842;47.450;8.654;2024-01-30T02:09:14;96885.50;;;-1.20;100.00
44297;BME280;51842;47.450;8.654;2024-01-30T02:11:40;96885.00;;;-1.24;100.00
44297;BME280;51842;47.450;8.654;2024-01-30T02:14:06;96892.03;;;-1.24;100.00
44297;BME280;51842;47.450;8.654;2024-01-30T02:16:32;96893.13;;;-1.35;100.00
44297;BME280;51842;47.450;8.654;2024-01-30T02:18:58;96889.56;;;-1.34;100.00
44297;BME280;51842;47.450;8.654;2024-01-30T02:21:25;96881.84;;;-1.35;100.00
44297;BME280;51842;47.450;8.654;2024-01-30T02:23:52;96877.97;;;-1.31;100.00
44297;BME280;51842;47.450;8.654;2024-01-30T02:26:20;96888.44;;;-1.31;100.00
44297;BME280;51842;47.450;8.654;2024-01-30T02:28:46;96884.00;;;-1.31;100.00
44297;BME280;51842;47.450;8.654;2024-01-30T02:31:12;96875.03;;;-1.28;100.00
44297;BME280;51842;47.450;8.654;2024-01-30T02:33:38;96882.72;;;-1.27;100.00
44297;BME280;51842;47.450;8.654;2024-01-30T02:36:04;96886.94;;;-1.26;100.00
44297;BME280;51842;47.450;8.654;2024-01-30T02:38:30;96880.59;;;-1.23;100.00
44297;BME280;51842;47.450;8.654;2024-01-30T02:40:56;96884.19;;;-1.24;100.00
44297;BME280;51842;47.450;8.654;2024-01-30T02:43:22;96880.09;;;-1.27;100.00
44297;BME280;51842;47.450;8.654;2024-01-30T02:45:48;96887.81;;;-1.25;100.00
44297;BME280;51842;47.450;8.654;2024-01-30T02:48:14;96882.03;;;-1.29;100.00
44297;BME280;51842;47.450;8.654;2024-01-30T02:50:40;96890.88;;;-1.30;100.00
44297;BME280;51842;47.450;8.654;2024-01-30T02:53:06;96887.47;;;-1.22;100.00
44297;BME280;51842;47.450;8.654;2024-01-30T02:55:32;96875.53;;;-1.25;100.00
44297;BME280;51842;47.450;8.654;2024-01-30T02:57:57;96877.47;;;-1.27;100.00
44297;BME280;51842;47.450;8.654;2024-01-30T03:00:23;96874.06;;;-1.27;100.00
44297;BME280;51842;47.450;8.654;2024-01-30T03:02:49;96873.56;;;-1.23;100.00
44297;BME280;51842;47.450;8.654;2024-01-30T03:05:15;96867.53;;;-1.23;100.00
44297;BME280;51842;47.450;8.654;2024-01-30T03:07:41;96864.25;;;-1.25;100.00
44297;BME280;51842;47.450;8.654;2024-01-30T03:10:07;96859.69;;;-1.23;100.00
44297;BME280;51842;47.450;8.654;2024-01-30T03:12:34;96868.50;;;-1.24;100.00
44297;BME280;51842;47.450;8.654;2024-01-30T03:14:59;96860.66;;;-1.24;100.00
44297;BME280;51842;47.450;8.654;2024-01-30T03:17:25;96866.72;;;-1.24;100.00
44297;BME280;51842;47.450;8.654;2024-01-30T03:19:51;96866.88;;;-1.25;100.00
44297;BME280;51842;47.450;8.654;2024-01-30T03:22:18;96869.50;;;-1.25;100.00
44297;BME280;51842;47.450;8.654;2024-01-30T03:24:43;96863.28;;;-1.24;100.00
44297;BME280;51842;47.450;8.654;2024-01-30T03:27:11;96859.84;;;-1.25;100.00
44297;BME280;51842;47.450;8.654;2024-01-30T03:29:37;96863.41;;;-1.26;100.00
44297;BME280;51842;47.450;8.654;2024-01-30T03:32:03;96861.13;;;-1.29;100.00
44297;BME280;51842;47.450;8.654;2024-01-30T03:34:30;96869.13;;;-1.30;100.00
44297;BME280;51842;47.450;8.654;2024-01-30T03:36:56;96859.28;;;-1.45;100.00
44297;BME280;51842;47.450;8.654;2024-01-30T03:39:22;96862.56;;;-1.43;100.00
44297;BME280;51842;47.450;8.654;2024-01-30T03:41:48;96863.56;;;-1.44;100.00
44297;BME280;51842;47.450;8.654;2024-01-30T03:44:14;96864.50;;;-1.45;100.00
44297;BME280;51842;47.450;8.654;2024-01-30T03:46:40;96867.75;;;-1.51;100.00
44297;BME280;51842;47.450;8.654;2024-01-30T03:49:06;96862.69;;;-1.52;100.00
44297;BME280;51842;47.450;8.654;2024-01-30T03:51:31;96861.06;;;-1.53;100.00
44297;BME280;51842;47.450;8.654;2024-01-30T03:53:57;96858.28;;;-1.52;100.00
44297;BME280;51842;47.450;8.654;2024-01-30T03:56:23;96860.91;;;-1.52;100.00
44297;BME280;51842;47.450;8.654;2024-01-30T03:58:51;96856.66;;;-1.53;100.00
44297;BME280;51842;47.450;8.654;2024-01-30T04:01:17;96864.13;;;-1.58;100.00
44297;BME280;51842;47.450;8.654;2024-01-30T04:03:44;96857.41;;;-1.60;100.00
44297;BME280;51842;47.450;8.654;2024-01-30T04:06:10;96855.63;;;-1.60;100.00
44297;BME280;51842;47.450;8.654;2024-01-30T04:08:37;96860.53;;;-1.57;100.00
44297;BME280;51842;47.450;8.654;2024-01-30T04:11:07;96863.69;;;-1.53;100.00
44297;BME280;51842;47.450;8.654;2024-01-30T04:13:34;96865.44;;;-1.62;100.00
44297;BME280;51842;47.450;8.654;2024-01-30T04:16:00;96862.50;;;-1.59;100.00
44297;BME280;51842;47.450;8.654;2024-01-30T04:18:27;96865.44;;;-1.54;100.00
44297;BME280;51842;47.450;8.654;2024-01-30T04:20:53;96862.84;;;-1.54;100.00
44297;BME280;51842;47.450;8.654;2024-01-30T04:23:19;96868.91;;;-1.53;100.00
44297;BME280;51842;47.450;8.654;2024-01-30T04:25:45;96865.63;;;-1.55;100.00
44297;BME280;51842;47.450;8.654;2024-01-30T04:28:11;96869.22;;;-1.56;100.00
44297;BME280;51842;47.450;8.654;2024-01-30T04:30:38;96867.56;;;-1.57;100.00
44297;BME280;51842;47.450;8.654;2024-01-30T04:33:04;96873.78;;;-1.58;100.00
44297;BME280;51842;47.450;8.654;2024-01-30T04:35:30;96863.63;;;-1.61;100.00
44297;BME280;51842;47.450;8.654;2024-01-30T04:37:56;96864.75;;;-1.64;100.00
44297;BME280;51842;47.450;8.654;2024-01-30T04:40:22;96866.69;;;-1.66;100.00
44297;BME280;51842;47.450;8.654;2024-01-30T04:42:48;96867.84;;;-1.69;100.00
44297;BME280;51842;47.450;8.654;2024-01-30T04:45:14;96870.63;;;-1.70;100.00
44297;BME280;51842;47.450;8.654;2024-01-30T04:47:40;96874.22;;;-1.71;100.00
44297;BME280;51842;47.450;8.654;2024-01-30T04:50:08;96869.97;;;-1.72;100.00
44297;BME280;51842;47.450;8.654;2024-01-30T04:52:35;96876.31;;;-1.75;100.00
44297;BME280;51842;47.450;8.654;2024-01-30T04:55:01;96862.59;;;-1.77;100.00
44297;BME280;51842;47.450;8.654;2024-01-30T04:57:27;96869.75;;;-1.79;100.00
44297;BME280;51842;47.450;8.654;2024-01-30T04:59:53;96870.38;;;-1.85;100.00
44297;BME280;51842;47.450;8.654;2024-01-30T05:02:19;96876.44;;;-1.84;100.00
44297;BME280;51842;47.450;8.654;2024-01-30T05:04:45;96870.69;;;-1.88;100.00
44297;BME280;51842;47.450;8.654;2024-01-30T05:07:11;96874.28;;;-1.89;100.00
44297;BME280;51842;47.450;8.654;2024-01-30T05:09:37;96871.84;;;-1.91;100.00
44297;BME280;51842;47.450;8.654;2024-01-30T05:12:03;96875.41;;;-1.92;100.00
44297;BME280;51842;47.450;8.654;2024-01-30T05:14:29;96877.38;;;-1.94;100.00
44297;BME280;51842;47.450;8.654;2024-01-30T05:16:55;96875.56;;;-1.93;100.00
44297;BME280;51842;47.450;8.654;2024-01-30T05:19:21;96877.19;;;-1.92;100.00
44297;BME280;51842;47.450;8.654;2024-01-30T05:21:49;96876.25;;;-1.91;100.00
44297;BME280;51842;47.450;8.654;2024-01-30T05:24:15;96887.50;;;-1.91;100.00
44297;BME280;51842;47.450;8.654;2024-01-30T05:26:41;96888.97;;;-1.88;100.00
44297;BME280;51842;47.450;8.654;2024-01-30T05:29:08;96882.91;;;-1.89;100.00
44297;BME280;51842;47.450;8.654;2024-01-30T05:31:36;96882.59;;;-1.94;100.00
44297;BME280;51842;47.450;8.654;2024-01-30T05:34:03;96889.44;;;-1.93;100.00
44297;BME280;51842;47.450;8.654;2024-01-30T05:36:29;96888.31;;;-1.90;100.00
44297;BME280;51842;47.450;8.654;2024-01-30T05:38:56;96891.91;;;-1.91;100.00
44297;BME280;51842;47.450;8.654;2024-01-30T05:41:23;96895.66;;;-1.94;100.00
44297;BME280;51842;47.450;8.654;2024-01-30T05:43:49;96894.97;;;-1.96;100.00
44297;BME280;51842;47.450;8.654;2024-01-30T05:46:14;96900.81;;;-2.02;100.00
44297;BME280;51842;47.450;8.654;2024-01-30T05:48:40;96900.13;;;-2.04;100.00
44297;BME280;51842;47.450;8.654;2024-01-30T05:51:08;96910.88;;;-2.07;100.00
44297;BME280;51842;47.450;8.654;2024-01-30T05:53:34;96907.44;;;-2.07;100.00
44297;BME280;51842;47.450;8.654;2024-01-30T05:56:02;96907.31;;;-2.06;100.00
44297;BME280;51842;47.450;8.654;2024-01-30T05:58:29;96912.03;;;-2.10;100.00
44297;BME280;51842;47.450;8.654;2024-01-30T06:00:55;96912.78;;;-2.17;100.00
44297;BME280;51842;47.450;8.654;2024-01-30T06:03:21;96905.75;;;-2.17;100.00
44297;BME280;51842;47.450;8.654;2024-01-30T06:05:46;96904.13;;;-2.18;100.00
44297;BME280;51842;47.450;8.654;2024-01-30T06:08:12;96900.84;;;-2.20;100.00
44297;BME280;51842;47.450;8.654;2024-01-30T06:10:38;96905.25;;;-2.20;100.00
44297;BME280;51842;47.450;8.654;2024-01-30T06:13:04;96904.44;;;-2.21;100.00
44297;BME280;51842;47.450;8.654;2024-01-30T06:15:30;96912.25;;;-2.21;100.00
44297;BME280;51842;47.450;8.654;2024-01-30T06:17:58;96908.66;;;-2.20;100.00
44297;BME280;51842;47.450;8.654;2024-01-30T06:20:24;96906.75;;;-2.18;100.00
44297;BME280;51842;47.450;8.654;2024-01-30T06:22:50;96906.75;;;-2.18;100.00
44297;BME280;51842;47.450;8.654;2024-01-30T06:25:16;96905.75;;;-2.17;100.00
44297;BME280;51842;47.450;8.654;2024-01-30T06:27:43;96915.38;;;-2.17;100.00
44297;BME280;51842;47.450;8.654;2024-01-30T06:30:10;96913.06;;;-2.20;100.00
44297;BME280;51842;47.450;8.654;2024-01-30T06:32:36;96917.78;;;-2.24;100.00
44297;BME280;51842;47.450;8.654;2024-01-30T06:35:03;96916.66;;;-2.21;100.00
44297;BME280;51842;47.450;8.654;2024-01-30T06:37:29;96917.03;;;-2.16;100.00
44297;BME280;51842;47.450;8.654;2024-01-30T06:39:54;96917.84;;;-2.16;100.00
44297;BME280;51842;47.450;8.654;2024-01-30T06:42:20;96926.19;;;-2.12;100.00
44297;BME280;51842;47.450;8.654;2024-01-30T06:44:46;96927.84;;;-2.11;100.00
44297;BME280;51842;47.450;8.654;2024-01-30T06:47:12;96924.25;;;-2.10;100.00
44297;BME280;51842;47.450;8.654;2024-01-30T06:49:38;96919.31;;;-2.13;100.00
44297;BME280;51842;47.450;8.654;2024-01-30T06:52:08;96921.63;;;-2.10;100.00
44297;BME280;51842;47.450;8.654;2024-01-30T06:54:34;96923.13;;;-2.07;100.00
44297;BME280;51842;47.450;8.654;2024-01-30T06:57:00;96920.50;;;-2.07;100.00
44297;BME280;51842;47.450;8.654;2024-01-30T06:59:26;96924.63;;;-2.05;100.00
44297;BME280;51842;47.450;8.654;2024-01-30T07:01:52;96933.78;;;-2.01;100.00
44297;BME280;51842;47.450;8.654;2024-01-30T07:04:18;96928.25;;;-1.98;100.00
44297;BME280;51842;47.450;8.654;2024-01-30T07:06:44;96935.63;;;-1.93;100.00
44297;BME280;51842;47.450;8.654;2024-01-30T07:09:10;96931.72;;;-1.89;100.00
44297;BME280;51842;47.450;8.654;2024-01-30T07:11:36;96941.06;;;-1.87;100.00
44297;BME280;51842;47.450;8.654;2024-01-30T07:14:02;96936.50;;;-1.84;100.00
44297;BME280;51842;47.450;8.654;2024-01-30T07:16:31;96934.53;;;-1.82;100.00
44297;BME280;51842;47.450;8.654;2024-01-30T07:18:57;96938.34;;;-1.77;100.00
44297;BME280;51842;47.450;8.654;2024-01-30T07:21:23;96932.00;;;-1.74;100.00
44297;BME280;51842;47.450;8.654;2024-01-30T07:23:54;96943.13;;;-1.72;100.00
44297;BME280;51842;47.450;8.654;2024-01-30T07:26:21;96943.75;;;-1.70;100.00
44297;BME280;51842;47.450;8.654;2024-01-30T07:28:47;96942.81;;;-1.69;100.00
44297;BME280;51842;47.450;8.654;2024-01-30T07:31:13;96943.31;;;-1.66;100.00
44297;BME280;51842;47.450;8.654;2024-01-30T07:33:38;96942.16;;;-1.63;100.00
44297;BME280;51842;47.450;8.654;2024-01-30T07:36:05;96949.69;;;-1.60;100.00
44297;BME280;51842;47.450;8.654;2024-01-30T07:38:34;96951.88;;;-1.55;100.00
44297;BME280;51842;47.450;8.654;2024-01-30T07:41:00;96957.44;;;-1.50;100.00
44297;BME280;51842;47.450;8.654;2024-01-30T07:43:26;96963.19;;;-1.47;100.00
44297;BME280;51842;47.450;8.654;2024-01-30T07:45:52;96961.72;;;-1.41;100.00
44297;BME280;51842;47.450;8.654;2024-01-30T07:48:18;96961.09;;;-1.35;100.00
44297;BME280;51842;47.450;8.654;2024-01-30T07:50:44;96965.88;;;-1.30;100.00
44297;BME280;51842;47.450;8.654;2024-01-30T07:53:10;96963.75;;;-1.27;100.00
44297;BME280;51842;47.450;8.654;2024-01-30T07:55:36;96965.25;;;-1.24;100.00
44297;BME280;51842;47.450;8.654;2024-01-30T07:58:02;96965.63;;;-1.19;100.00
44297;BME280;51842;47.450;8.654;2024-01-30T08:00:30;96972.81;;;-1.13;100.00
44297;BME280;51842;47.450;8.654;2024-01-30T08:02:56;96964.50;;;-1.08;100.00
44297;BME280;51842;47.450;8.654;2024-01-30T08:05:23;96962.38;;;-1.05;100.00
44297;BME280;51842;47.450;8.654;2024-01-30T08:07:50;96962.56;;;-0.98;100.00
44297;BME280;51842;47.450;8.654;2024-01-30T08:10:16;96962.25;;;-0.95;100.00
44297;BME280;51842;47.450;8.654;2024-01-30T08:12:44;96964.91;;;-0.87;100.00
44297;BME280;51842;47.450;8.654;2024-01-30T08:15:12;96965.22;;;-0.82;100.00
44297;BME280;51842;47.450;8.654;2024-01-30T08:17:39;96965.56;;;-0.77;100.00
44297;BME280;51842;47.450;8.654;2024-01-30T08:20:06;96973.16;;;-0.65;100.00
44297;BME280;51842;47.450;8.654;2024-01-30T08:22:33;96977.75;;;-0.59;100.00
44297;BME280;51842;47.450;8.654;2024-01-30T08:24:59;96972.19;;;-0.48;100.00
44297;BME280;51842;47.450;8.654;2024-01-30T08:27:25;96970.41;;;-0.39;100.00
44297;BME280;51842;47.450;8.654;2024-01-30T08:29:51;96978.09;;;-0.30;100.00
44297;BME280;51842;47.450;8.654;2024-01-30T08:32:17;96980.88;;;-0.23;100.00
44297;BME280;51842;47.450;8.654;2024-01-30T08:34:43;96980.09;;;-0.15;100.00
44297;BME280;51842;47.450;8.654;2024-01-30T08:37:09;96973.03;;;-0.07;100.00
44297;BME280;51842;47.450;8.654;2024-01-30T08:39:35;96976.47;;;0.02;100.00
44297;BME280;51842;47.450;8.654;2024-01-30T08:42:00;96975.66;;;0.10;100.00
44297;BME280;51842;47.450;8.654;2024-01-30T08:44:26;96968.78;;;0.17;100.00
44297;BME280;51842;47.450;8.654;2024-01-30T08:46:53;96973.03;;;0.26;100.00
44297;BME280;51842;47.450;8.654;2024-01-30T08:49:20;96970.22;;;0.36;100.00
44297;BME280;51842;47.450;8.654;2024-01-30T08:51:46;96970.69;;;0.48;100.00
44297;BME280;51842;47.450;8.654;2024-01-30T08:54:13;96974.44;;;0.61;100.00
44297;BME280;51842;47.450;8.654;2024-01-30T08:56:39;96975.38;;;0.77;100.00
44297;BME280;51842;47.450;8.654;2024-01-30T08:59:05;96975.97;;;0.95;100.00
44297;BME280;51842;47.450;8.654;2024-01-30T09:01:31;96982.47;;;1.07;100.00
44297;BME280;51842;47.450;8.654;2024-01-30T09:03:56;96975.34;;;1.24;100.00
44297;BME280;51842;47.450;8.654;2024-01-30T09:06:22;96976.72;;;1.43;100.00
44297;BME280;51842;47.450;8.654;2024-01-30T09:08:49;96971.00;;;1.62;100.00
44297;BME280;51842;47.450;8.654;2024-01-30T09:11:16;96975.28;;;1.87;100.00
44297;BME280;51842;47.450;8.654;2024-01-30T09:13:42;96977.44;;;2.06;100.00
44297;BME280;51842;47.450;8.654;2024-01-30T09:16:09;96979.22;;;2.28;100.00
44297;BME280;51842;47.450;8.654;2024-01-30T09:18:35;96980.63;;;2.54;100.00
44297;BME280;51842;47.450;8.654;2024-01-30T09:21:01;96983.28;;;2.84;100.00
44297;BME280;51842;47.450;8.654;2024-01-30T09:23:30;96974.38;;;3.14;100.00
44297;BME280;51842;47.450;8.654;2024-01-30T09:25:56;96974.31;;;3.44;100.00
44297;BME280;51842;47.450;8.654;2024-01-30T09:28:22;96979.50;;;3.74;100.00
44297;BME280;51842;47.450;8.654;2024-01-30T09:30:48;96973.97;;;3.90;100.00
44297;BME280;51842;47.450;8.654;2024-01-30T09:33:14;96981.63;;;4.06;100.00
44297;BME280;51842;47.450;8.654;2024-01-30T09:35:40;96972.50;;;4.30;100.00
44297;BME280;51842;47.450;8.654;2024-01-30T09:38:06;96979.81;;;4.56;100.00
44297;BME280;51842;47.450;8.654;2024-01-30T09:40:32;96980.00;;;4.83;100.00
44297;BME280;51842;47.450;8.654;2024-01-30T09:42:59;96988.66;;;5.05;99.01
44297;BME280;51842;47.450;8.654;2024-01-30T09:45:30;96986.94;;;5.32;97.53
44297;BME280;51842;47.450;8.654;2024-01-30T09:47:59;96984.16;;;5.53;95.90
44297;BME280;51842;47.450;8.654;2024-01-30T09:50:27;96994.22;;;5.78;92.72
44297;BME280;51842;47.450;8.654;2024-01-30T09:52:55;96988.00;;;5.99;89.93
44297;BME280;51842;47.450;8.654;2024-01-30T09:55:23;96985.97;;;6.28;84.92
44297;BME280;51842;47.450;8.654;2024-01-30T09:57:49;96992.88;;;6.48;84.66
44297;BME280;51842;47.450;8.654;2024-01-30T10:00:15;96993.31;;;6.65;81.03
44297;BME280;51842;47.450;8.654;2024-01-30T10:02:42;96995.31;;;6.90;79.28
44297;BME280;51842;47.450;8.654;2024-01-30T10:05:08;96999.94;;;7.14;80.94
44297;BME280;51842;47.450;8.654;2024-01-30T10:07:35;96995.63;;;7.33;77.80
44297;BME280;51842;47.450;8.654;2024-01-30T10:10:01;96992.44;;;7.63;75.32
44297;BME280;51842;47.450;8.654;2024-01-30T10:12:28;96999.81;;;7.93;73.88
44297;BME280;51842;47.450;8.654;2024-01-30T10:14:56;96995.53;;;7.92;72.28
44297;BME280;51842;47.450;8.654;2024-01-30T10:17:25;97000.09;;;8.16;71.04
44297;BME280;51842;47.450;8.654;2024-01-30T10:19:52;96995.91;;;8.27;70.27
44297;BME280;51842;47.450;8.654;2024-01-30T10:22:19;97000.31;;;8.46;69.35
44297;BME280;51842;47.450;8.654;2024-01-30T10:24:45;96990.34;;;8.67;68.83
44297;BME280;51842;47.450;8.654;2024-01-30T10:27:11;96993.72;;;8.74;68.05
44297;BME280;51842;47.450;8.654;2024-01-30T10:29:37;96991.25;;;8.79;69.78
44297;BME280;51842;47.450;8.654;2024-01-30T10:32:06;96988.66;;;8.72;66.74
44297;BME280;51842;47.450;8.654;2024-01-30T10:34:33;96984.38;;;8.90;67.21
44297;BME280;51842;47.450;8.654;2024-01-30T10:37:11;96984.88;;;9.23;66.94
44297;BME280;51842;47.450;8.654;2024-01-30T10:39:45;96983.00;;;9.42;65.41
44297;BME280;51842;47.450;8.654;2024-01-30T10:42:18;96981.03;;;9.56;65.17
44297;BME280;51842;47.450;8.654;2024-01-30T10:44:53;96978.91;;;9.77;64.62
44297;BME280;51842;47.450;8.654;2024-01-30T10:47:28;96982.03;;;10.04;62.33
44297;BME280;51842;47.450;8.654;2024-01-30T10:49:57;96974.97;;;10.09;61.59
44297;BME280;51842;47.450;8.654;2024-01-30T10:52:24;96976.59;;;10.40;61.81
44297;BME280;51842;47.450;8.654;2024-01-30T10:54:54;96974.84;;;10.58;59.27
44297;BME280;51842;47.450;8.654;2024-01-30T10:57:23;96968.38;;;10.77;58.53
44297;BME280;51842;47.450;8.654;2024-01-30T10:59:56;96964.91;;;10.88;58.61
44297;BME280;51842;47.450;8.654;2024-01-30T11:02:25;96958.66;;;11.06;58.18
44297;BME280;51842;47.450;8.654;2024-01-30T11:04:59;96951.22;;;11.61;56.64
44297;BME280;51842;47.450;8.654;2024-01-30T11:07:29;96957.16;;;11.79;53.83
44297;BME280;51842;47.450;8.654;2024-01-30T11:10:03;96953.09;;;11.89;54.12
44297;BME280;51842;47.450;8.654;2024-01-30T11:12:33;96950.03;;;11.97;53.57
44297;BME280;51842;47.450;8.654;2024-01-30T11:15:11;96953.50;;;12.26;53.01
44297;BME280;51842;47.450;8.654;2024-01-30T11:20:27;96947.34;;;12.25;52.52
44297;BME280;51842;47.450;8.654;2024-01-30T11:22:59;96945.00;;;12.29;52.57
44297;BME280;51842;47.450;8.654;2024-01-30T11:25:27;96941.56;;;12.34;53.22
44297;BME280;51842;47.450;8.654;2024-01-30T11:27:56;96940.13;;;12.43;52.42
44297;BME280;51842;47.450;8.654;2024-01-30T11:30:31;96941.50;;;12.45;53.02
44297;BME280;51842;47.450;8.654;2024-01-30T11:33:12;96941.03;;;12.48;53.75
44297;BME280;51842;47.450;8.654;2024-01-30T11:35:40;96931.88;;;12.44;52.69
44297;BME280;51842;47.450;8.654;2024-01-30T11:38:18;96933.22;;;12.47;53.97
44297;BME280;51842;47.450;8.654;2024-01-30T11:40:45;96932.84;;;12.55;53.87
44297;BME280;51842;47.450;8.654;2024-01-30T11:43:11;96932.25;;;12.53;51.53
44297;BME280;51842;47.450;8.654;2024-01-30T11:45:38;96931.78;;;12.56;53.60
44297;BME280;51842;47.450;8.654;2024-01-30T11:48:06;96925.16;;;12.42;52.68
44297;BME280;51842;47.450;8.654;2024-01-30T11:50:34;96927.56;;;12.26;52.98
44297;BME280;51842;47.450;8.654;2024-01-30T11:53:00;96929.81;;;12.01;53.33
44297;BME280;51842;47.450;8.654;2024-01-30T11:55:27;96918.22;;;11.95;53.71
44297;BME280;51842;47.450;8.654;2024-01-30T11:57:58;96919.53;;;11.93;54.02
44297;BME280;51842;47.450;8.654;2024-01-30T12:00:25;96926.25;;;11.95;53.76
44297;BME280;51842;47.450;8.654;2024-01-30T12:02:54;96926.56;;;11.99;53.26
44297;BME280;51842;47.450;8.654;2024-01-30T12:05:26;96919.16;;;12.18;53.13
44297;BME280;51842;47.450;8.654;2024-01-30T12:07:53;96926.13;;;12.36;48.86
44297;BME280;51842;47.450;8.654;2024-01-30T12:10:20;96912.56;;;12.59;50.68
44297;BME280;51842;47.450;8.654;2024-01-30T12:15:16;96919.06;;;13.02;50.77
44297;BME280;51842;47.450;8.654;2024-01-30T12:17:42;96913.31;;;13.10;47.67
44297;BME280;51842;47.450;8.654;2024-01-30T12:22:42;96910.38;;;13.12;46.08
44297;BME280;51842;47.450;8.654;2024-01-30T12:25:15;96909.41;;;13.40;46.24
44297;BME280;51842;47.450;8.654;2024-01-30T12:27:48;96903.44;;;13.33;45.20
44297;BME280;51842;47.450;8.654;2024-01-30T12:30:18;96905.13;;;13.66;46.32
44297;BME280;51842;47.450;8.654;2024-01-30T12:32:47;96900.44;;;13.78;47.94
44297;BME280;51842;47.450;8.654;2024-01-30T12:35:18;96897.97;;;13.72;47.27
44297;BME280;51842;47.450;8.654;2024-01-30T12:37:46;96900.72;;;13.77;48.06
44297;BME280;51842;47.450;8.654;2024-01-30T12:40:15;96900.06;;;14.24;47.48
44297;BME280;51842;47.450;8.654;2024-01-30T12:42:47;96897.22;;;14.35;47.06
44297;BME280;51842;47.450;8.654;2024-01-30T12:45:15;96894.22;;;14.64;45.43
44297;BME280;51842;47.450;8.654;2024-01-30T12:47:42;96898.94;;;14.94;47.18
44297;BME280;51842;47.450;8.654;2024-01-30T12:50:08;96894.19;;;15.07;45.50
44297;BME280;51842;47.450;8.654;2024-01-30T12:52:36;96900.19;;;15.24;46.18
44297;BME280;51842;47.450;8.654;2024-01-30T12:55:02;96902.19;;;14.96;46.21
44297;BME280;51842;47.450;8.654;2024-01-30T12:57:29;96898.47;;;14.60;46.94
44297;BME280;51842;47.450;8.654;2024-01-30T12:59:55;96902.81;;;14.02;48.55
44297;BME280;51842;47.450;8.654;2024-01-30T13:02:21;96905.22;;;14.03;48.82